Time;durP1;ratioP1;P1;durP2;ratioP2;P2;SDS_P1;SDS_P2;PMS_P1;PMS_P2;Temp;Humidity;BMP_temperature;BMP_pressure;BME280_temperature;BME280_humidity;BME280_pressure;Samples;Min_cycle;Max_cycle;Signal;HPM_P1;HPM_P2
2021/07/26 00:04:10;;;;;;;15.53;12.43;;;;;;;18.55;89.36;98699.29;4133481;86;21081;-81
2021/07/26 00:10:12;;;;;;;21.48;12.95;;;;;;;18.59;89.80;98723.53;4103286;85;21041;-83
2021/07/26 00:16:13;;;;;;;22.42;12.30;;;;;;;18.59;90.08;98725.70;4122278;86;21478;-82
2021/07/26 00:22:15;;;;;;;25.27;13.68;;;;;;;18.66;90.23;98692.87;4131783;84;21029;-82
2021/07/26 00:28:16;;;;;;;20.37;13.80;;;;;;;18.70;90.34;98679.08;4096634;86;21025;-83
2021/07/26 00:34:35;;;;;;;25.08;13.22;;;;;;;18.66;90.52;98662.38;4116099;86;21029;-82
2021/07/26 00:40:37;;;;;;;20.43;12.85;;;;;;;18.65;90.76;98693.46;4105084;86;21036;-85
2021/07/26 00:46:38;;;;;;;17.37;14.18;;;;;;;18.59;91.27;98688.28;4131759;86;21080;-83
2021/07/26 00:52:40;;;;;;;23.62;14.40;;;;;;;18.62;91.61;98681.86;4121446;86;21050;-84
2021/07/26 00:58:43;;;;;;;18.67;13.28;;;;;;;18.56;91.66;98686.38;4113299;86;21398;-83
2021/07/26 01:04:51;;;;;;;16.73;13.50;;;;;;;18.53;92.91;98698.94;4125225;86;21082;-84
2021/07/26 01:11:01;;;;;;;17.98;14.23;;;;;;;18.47;93.60;98707.01;4114696;86;21050;-85
2021/07/26 01:23:47;;;;;;;15.08;10.82;;;;;;;18.49;94.79;98615.90;4117103;85;21046;-84
2021/07/26 01:29:49;;;;;;;12.25;9.13;;;;;;;18.52;95.31;98567.12;4124930;84;21069;-85
2021/07/26 01:35:52;;;;;;;11.93;8.40;;;;;;;18.48;97.86;98544.25;4125805;86;21084;-85
2021/07/26 01:41:55;;;;;;;10.30;8.33;;;;;;;18.39;99.36;98508.88;4105151;84;21469;-85
2021/07/26 01:48:59;;;;;;;11.83;8.45;;;;;;;18.35;100.00;98494.92;4111898;86;21638;-84
2021/07/26 01:55:26;;;;;;;8.40;6.62;;;;;;;18.25;99.53;98477.97;4034396;86;21562;-84
2021/07/26 02:01:58;;;;;;;8.70;6.22;;;;;;;18.23;99.41;98466.54;4010518;87;21186;-86
2021/07/26 02:14:42;;;;;;;7.70;5.87;;;;;;;18.23;99.44;98474.25;3992365;87;21665;-84
2021/07/26 02:20:58;;;;;;;23.52;6.65;;;;;;;18.29;99.59;98480.05;4045929;87;21733;-83
2021/07/26 02:26:59;;;;;;;8.03;5.78;;;;;;;18.28;99.24;98473.72;4051250;87;21090;-83
2021/07/26 02:33:01;;;;;;;8.78;6.00;;;;;;;18.26;98.70;98479.55;4050075;85;21531;-82
2021/07/26 02:39:08;;;;;;;7.80;6.33;;;;;;;18.27;98.32;98507.41;4055532;87;21403;-81
2021/07/26 02:45:10;;;;;;;6.75;4.60;;;;;;;18.30;98.20;98510.09;4067139;85;21019;-82
2021/07/26 02:51:12;;;;;;;5.90;4.22;;;;;;;18.28;98.16;98525.58;4067777;85;21071;-81
2021/07/26 02:57:13;;;;;;;6.08;5.20;;;;;;;18.28;98.04;98547.14;4042044;86;21598;-81
2021/07/26 03:03:20;;;;;;;7.40;5.08;;;;;;;18.26;97.88;98557.88;4070538;86;21063;-81
2021/07/26 03:09:21;;;;;;;6.42;4.40;;;;;;;18.17;97.68;98548.03;4083615;86;21091;-82
2021/07/26 03:15:25;;;;;;;5.12;4.28;;;;;;;18.11;97.76;98565.61;4086658;86;21510;-81
2021/07/26 03:21:27;;;;;;;5.20;3.85;;;;;;;18.04;97.95;98551.96;4085325;85;21582;-83
2021/07/26 03:27:29;;;;;;;5.35;4.40;;;;;;;18.01;98.24;98550.06;4088981;86;21071;-82
2021/07/26 03:33:30;;;;;;;5.95;4.17;;;;;;;17.96;98.35;98536.73;4084752;85;21078;-81
2021/07/26 03:39:32;;;;;;;5.80;4.45;;;;;;;17.94;98.14;98533.61;4086481;85;21064;-80
2021/07/26 03:45:33;;;;;;;5.22;4.17;;;;;;;17.90;98.19;98536.47;4078414;86;21374;-81
2021/07/26 03:51:35;;;;;;;8.35;4.87;;;;;;;17.91;98.48;98521.42;4072560;85;21040;-80
2021/07/26 03:57:37;;;;;;;8.63;4.90;;;;;;;17.89;98.50;98539.67;4077665;85;21061;-81
2021/07/26 04:03:42;;;;;;;9.55;5.10;;;;;;;17.85;98.52;98542.55;4073918;86;21051;-80
2021/07/26 04:09:45;;;;;;;6.33;4.50;;;;;;;17.88;98.79;98555.53;4072858;85;21122;-79
2021/07/26 04:15:49;;;;;;;5.50;4.45;;;;;;;17.93;98.90;98554.98;4077549;86;21050;-82
2021/07/26 04:21:52;;;;;;;5.45;3.95;;;;;;;17.95;98.92;98560.08;4087274;86;21035;-83
2021/07/26 04:27:54;;;;;;;5.03;3.95;;;;;;;17.97;99.05;98568.14;4007082;86;26954;-81
2021/07/26 04:33:55;;;;;;;6.45;3.83;;;;;;;18.11;99.36;98569.17;3972639;88;21055;-81
2021/07/26 04:39:56;;;;;;;8.83;4.03;;;;;;;18.16;99.15;98565.88;3977492;88;21047;-81
2021/07/26 04:46:00;;;;;;;6.95;4.12;;;;;;;18.29;99.33;98575.64;3979016;88;21103;-81
2021/07/26 04:52:02;;;;;;;7.62;3.87;;;;;;;18.36;99.20;98590.67;3977644;88;21055;-81
2021/07/26 04:58:04;;;;;;;6.22;3.83;;;;;;;18.39;99.05;98594.78;3975537;88;22281;-81
2021/07/26 05:04:05;;;;;;;5.50;4.00;;;;;;;18.38;99.17;98579.38;3976057;87;21051;-83
2021/07/26 05:10:10;;;;;;;9.75;3.90;;;;;;;18.37;99.20;98585.33;3967139;88;21596;-81
2021/07/26 05:16:12;;;;;;;4.62;4.05;;;;;;;18.41;99.46;98599.88;3969546;88;21028;-79
2021/07/26 05:22:13;;;;;;;6.95;3.55;;;;;;;18.50;99.42;98605.57;3967472;88;21041;-81
2021/07/26 05:28:15;;;;;;;5.12;4.28;;;;;;;18.57;99.60;98620.64;3981950;88;21524;-81
2021/07/26 05:34:17;;;;;;;8.08;4.20;;;;;;;18.76;100.00;98632.80;3981220;88;21080;-81
2021/07/26 05:40:18;;;;;;;5.95;3.67;;;;;;;18.98;99.94;98642.09;3983223;88;21060;-80
2021/07/26 05:46:20;;;;;;;7.17;3.45;;;;;;;19.15;99.72;98629.71;3981051;88;21103;-80
2021/07/26 05:52:22;;;;;;;9.40;4.83;;;;;;;19.32;99.55;98639.54;3981772;88;21044;-82
2021/07/26 05:58:25;;;;;;;6.62;4.40;;;;;;;19.42;99.54;98639.22;3977155;88;21163;-81
2021/07/26 06:04:27;;;;;;;6.53;4.37;;;;;;;19.50;99.15;98653.05;3982213;88;21111;-81
2021/07/26 06:10:28;;;;;;;8.00;4.72;;;;;;;19.59;99.19;98658.72;3989827;87;21062;-80
2021/07/26 06:16:31;;;;;;;11.03;5.35;;;;;;;19.70;99.24;98672.30;3989113;88;21187;-81
2021/07/26 06:22:32;;;;;;;12.68;6.10;;;;;;;19.87;99.27;98675.14;3990276;88;21065;-81
2021/07/26 06:28:49;;;;;;;11.15;5.40;;;;;;;20.01;99.09;98683.03;3986364;87;21489;-80
2021/07/26 06:35:05;;;;;;;;;;;;;;;;;;;;;
2021/07/26 06:41:17;;;;;;;7.78;5.30;;;;;;;20.28;98.67;98700.66;3772442;92;21085;-81
2021/07/26 06:47:19;;;;;;;5.65;4.87;;;;;;;20.31;98.29;98692.81;3702268;94;21159;-82
2021/07/26 06:53:20;;;;;;;10.30;5.90;;;;;;;20.45;98.57;98697.91;3902419;88;21030;-82
2021/07/26 06:59:25;;;;;;;7.97;5.37;;;;;;;20.65;98.65;98703.38;3981401;88;21018;-83
2021/07/26 07:05:28;;;;;;;6.17;5.10;;;;;;;20.95;98.31;98701.94;3979683;87;21115;-82
2021/07/26 07:11:30;;;;;;;8.48;4.53;;;;;;;21.19;98.08;98701.72;3975409;88;21266;-82
2021/07/26 07:17:31;;;;;;;7.47;5.05;;;;;;;21.33;97.27;98708.91;3974956;87;21059;-82
2021/07/26 07:23:32;;;;;;;5.95;4.67;;;;;;;21.41;97.20;98715.78;3974222;88;21107;-82
2021/07/26 07:29:34;;;;;;;6.83;5.10;;;;;;;21.54;96.74;98708.14;3977965;87;21243;-82
2021/07/26 07:35:35;;;;;;;9.48;6.03;;;;;;;21.71;96.65;98712.87;3974054;88;21544;-83
2021/07/26 07:41:37;;;;;;;7.85;4.92;;;;;;;22.03;96.38;98713.06;3976174;88;21634;-82
2021/07/26 07:47:40;;;;;;;9.28;5.15;;;;;;;22.12;94.89;98716.67;3975559;88;21706;-81
2021/07/26 07:53:42;;;;;;;8.03;4.65;;;;;;;22.11;94.73;98715.73;3973835;88;21062;-82
2021/07/26 07:59:45;;;;;;;7.85;4.65;;;;;;;22.08;94.05;98722.23;3972297;88;21563;-82
2021/07/26 08:05:48;;;;;;;7.35;4.72;;;;;;;22.12;93.77;98733.39;3974442;88;21112;-82
2021/07/26 08:11:49;;;;;;;5.25;4.37;;;;;;;22.12;93.13;98740.97;3966983;88;21028;-80
2021/07/26 08:17:52;;;;;;;5.25;4.70;;;;;;;22.08;91.69;98745.28;3963370;88;21016;-83
2021/07/26 08:23:53;;;;;;;6.58;4.33;;;;;;;21.87;90.92;98754.48;3964049;87;21537;-82
2021/07/26 08:29:54;;;;;;;8.15;3.98;;;;;;;21.99;89.44;98744.49;3978724;88;21083;-80
2021/07/26 08:35:57;;;;;;;7.10;4.80;;;;;;;22.13;91.11;98751.66;3976763;88;21052;-82
2021/07/26 08:41:58;;;;;;;6.53;3.67;;;;;;;22.49;90.98;98746.22;3978048;88;21543;-83
2021/07/26 08:48:07;;;;;;;7.97;3.77;;;;;;;22.63;89.71;98742.88;3976938;87;21067;-82
2021/07/26 08:54:10;;;;;;;5.80;4.03;;;;;;;22.67;85.14;98746.92;3976281;88;21103;-83
2021/07/26 09:00:14;;;;;;;4.08;3.37;;;;;;;22.67;85.80;98752.50;3977480;88;21592;-83
2021/07/26 09:06:15;;;;;;;3.62;3.17;;;;;;;23.00;86.04;98752.89;3975953;88;21579;-83
2021/07/26 09:12:33;;;;;;;4.20;3.35;;;;;;;23.40;84.40;98754.80;3964821;88;21071;-83
2021/07/26 09:18:34;;;;;;;4.72;3.67;;;;;;;23.60;84.07;98747.45;3970855;86;119451;-82
2021/07/26 09:24:37;;;;;;;4.45;3.30;;;;;;;23.97;82.80;98748.97;4097409;85;21048;-82
2021/07/26 09:30:43;;;;;;;5.67;3.37;;;;;;;24.38;82.90;98745.38;4099741;85;21457;-83
2021/07/26 09:36:45;;;;;;;;;;;;;;;24.90;83.45;98741.22;4103862;86;21107;-83
2021/07/26 09:42:46;;;;;;;6.97;3.05;;;;;;;25.25;79.62;98742.21;4101851;85;20995;-83
2021/07/26 09:49:17;;;;;;;3.77;2.65;;;;;;;26.15;79.00;98720.95;4092512;86;21043;-82
2021/07/26 09:55:31;;;;;;;4.40;2.72;;;;;;;26.15;79.00;98720.95;4096184;86;21588;-84
2021/07/26 10:01:34;;;;;;;3.25;2.67;;;;;;;27.04;77.26;98742.05;4092990;86;21143;-81
2021/07/26 10:07:35;;;;;;;4.33;3.17;;;;;;;27.78;75.96;98748.78;4099798;85;21044;-83
2021/07/26 10:13:41;;;;;;;5.47;2.50;;;;;;;28.20;74.65;98755.19;4098963;86;21556;-83
2021/07/26 10:19:43;;;;;;;4.37;2.35;;;;;;;28.29;73.88;98755.77;4100011;86;21075;-86
2021/07/26 10:25:51;;;;;;;3.25;2.95;;;;;;;28.45;73.40;98751.54;4098859;86;21028;-84
2021/07/26 10:31:52;;;;;;;3.20;2.75;;;;;;;27.89;70.14;98755.17;4098744;85;21563;-84
2021/07/26 10:37:54;;;;;;;3.37;2.60;;;;;;;27.66;69.49;98753.39;4098705;85;21556;-85
2021/07/26 10:44:11;;;;;;;;;;;;;;;;;;;;;
2021/07/26 10:50:16;;;;;;;5.25;2.50;;;;;;;28.36;65.25;98748.27;4079926;85;21048;-83
2021/07/26 10:56:56;;;;;;;4.08;2.52;;;;;;;28.86;65.17;98757.84;4103055;86;21039;-84
2021/07/26 11:03:02;;;;;;;4.53;2.67;;;;;;;28.97;63.77;98752.26;3991846;87;21043;-85
2021/07/26 11:09:36;;;;;;;;;;;;;;;;;;;;;
2021/07/26 11:15:57;;;;;;;5.70;2.72;;;;;;;29.73;62.96;98745.27;4101212;86;21069;-84
2021/07/26 11:22:23;;;;;;;3.08;2.72;;;;;;;30.23;61.84;98731.99;4097912;85;21052;-84
2021/07/26 11:28:25;;;;;;;3.55;2.70;;;;;;;30.94;60.21;98733.95;4094794;86;21044;-85
2021/07/26 11:34:43;;;;;;;3.50;2.92;;;;;;;31.16;58.29;98727.44;4099971;86;21084;-85
2021/07/26 11:40:49;;;;;;;5.35;2.70;;;;;;;30.61;58.67;98734.01;4097125;86;21068;-85
2021/07/26 11:47:05;;;;;;;3.75;2.47;;;;;;;30.74;58.26;98731.42;4090588;86;21584;-84
2021/07/26 11:53:18;;;;;;;3.67;3.37;;;;;;;30.64;57.75;98733.61;4101784;86;21055;-85
2021/07/26 11:59:22;;;;;;;4.53;3.10;;;;;;;30.68;57.94;98732.72;4071033;86;21055;-85
2021/07/26 12:05:37;;;;;;;3.50;3.07;;;;;;;30.95;57.09;98734.70;4101502;85;21568;-86
2021/07/26 12:11:38;;;;;;;4.78;3.92;;;;;;;30.85;56.18;98731.42;4111224;85;21065;-85
2021/07/26 12:17:41;;;;;;;4.45;3.10;;;;;;;30.53;55.96;98735.81;4110496;85;21026;-85
2021/07/26 12:23:44;;;;;;;3.20;2.90;;;;;;;30.01;56.02;98728.50;4109167;85;21051;-86
2021/07/26 12:30:13;;;;;;;5.87;3.40;;;;;;;29.57;54.83;98731.23;4114395;85;21602;-86
2021/07/26 12:36:21;;;;;;;4.22;3.42;;;;;;;29.24;55.45;98717.70;4049947;86;21544;-85
2021/07/26 12:42:22;;;;;;;7.53;3.65;;;;;;;28.99;56.04;98719.35;4114482;85;21045;-85
2021/07/26 12:48:26;;;;;;;5.37;3.33;;;;;;;28.92;55.62;98717.03;4051550;86;21058;-85
2021/07/26 12:54:47;;;;;;;6.95;3.90;;;;;;;28.87;55.42;98721.36;4112257;85;21018;-85
2021/07/26 13:00:58;;;;;;;6.92;3.47;;;;;;;28.60;56.05;98721.97;4114999;85;21044;-85
2021/07/26 13:07:05;;;;;;;5.67;3.33;;;;;;;28.45;55.83;98715.72;4043505;86;21627;-84
2021/07/26 13:13:42;;;;;;;5.10;3.72;;;;;;;28.30;56.13;98709.45;4065886;86;21004;-85
2021/07/26 13:19:44;;;;;;;5.28;3.62;;;;;;;28.33;55.63;98703.48;4073180;86;21785;-85
2021/07/26 13:25:46;;;;;;;6.78;3.80;;;;;;;28.21;55.97;98704.66;4064467;86;21055;-85
2021/07/26 13:31:54;;;;;;;5.78;3.77;;;;;;;28.13;55.49;98707.81;4050604;85;21075;-85
2021/07/26 13:38:19;;;;;;;6.72;3.70;;;;;;;28.12;56.16;98694.38;4064319;86;21252;-85
2021/07/26 13:44:28;;;;;;;4.83;3.37;;;;;;;28.10;55.75;98710.20;4060576;86;21032;-86
2021/07/26 13:50:36;;;;;;;4.72;3.90;;;;;;;28.05;55.48;98699.69;4073512;86;21131;-85
2021/07/26 13:56:38;;;;;;;5.05;3.65;;;;;;;27.91;55.74;98703.41;4062942;86;21071;-85
2021/07/26 14:02:49;;;;;;;4.83;3.77;;;;;;;27.76;55.75;98698.50;4072293;85;21567;-85
2021/07/26 14:08:50;;;;;;;5.15;3.90;;;;;;;27.65;56.54;98701.99;4074527;86;21065;-86
2021/07/26 14:14:54;;;;;;;7.05;3.98;;;;;;;27.53;57.31;98706.72;4114024;85;20995;-85
2021/07/26 14:21:02;;;;;;;6.70;4.40;;;;;;;27.57;57.04;98705.11;4115017;85;21105;-85
2021/07/26 14:27:04;;;;;;;8.65;4.72;;;;;;;27.55;56.86;98702.80;4047524;86;21067;-86
2021/07/26 14:33:08;;;;;;;6.00;4.17;;;;;;;27.43;57.47;98704.58;4109705;85;21097;-85
2021/07/26 14:39:16;;;;;;;8.83;4.70;;;;;;;27.30;58.07;98697.93;4114752;85;20999;-86
2021/07/26 14:45:17;;;;;;;6.00;4.37;;;;;;;27.35;58.66;98688.79;4110848;85;21077;-85
2021/07/26 14:51:21;;;;;;;7.25;4.20;;;;;;;27.45;58.46;98683.13;4118827;85;21054;-85
2021/07/26 14:57:30;;;;;;;7.97;4.75;;;;;;;27.54;58.69;98677.98;4051705;86;21381;-85
2021/07/26 15:03:35;;;;;;;9.60;4.95;;;;;;;27.62;58.33;98667.84;4099048;85;21118;-85
2021/07/26 15:09:59;;;;;;;6.35;4.22;;;;;;;27.65;58.06;98664.03;4112620;85;21027;-85
2021/07/26 15:16:07;;;;;;;5.25;4.42;;;;;;;27.65;58.44;98657.00;4103778;85;21143;-85
2021/07/26 15:29:19;;;;;;;5.92;4.70;;;;;;;27.56;57.54;98658.59;4114361;85;21616;-85
2021/07/26 15:36:33;;;;;;;7.70;4.62;;;;;;;27.51;57.67;98655.87;3975505;89;21078;-86
2021/07/26 15:49:02;;;;;;;6.03;4.95;;;;;;;27.26;58.36;98639.78;3970278;88;21078;-84
2021/07/26 15:55:13;;;;;;;5.85;4.60;;;;;;;27.20;57.89;98633.93;3960330;88;21077;-84
2021/07/26 16:01:16;;;;;;;8.23;4.87;;;;;;;27.11;58.52;98624.27;4025507;87;21036;-85
2021/07/26 16:07:17;;;;;;;8.45;4.78;;;;;;;27.05;58.65;98626.22;3988828;87;21582;-84
2021/07/26 16:13:20;;;;;;;7.20;5.25;;;;;;;27.02;58.81;98630.02;4137577;85;22268;-85
2021/07/26 16:19:21;;;;;;;6.22;4.72;;;;;;;26.98;59.01;98631.66;4136787;85;21027;-85
2021/07/26 16:25:29;;;;;;;5.70;4.60;;;;;;;26.94;59.44;98636.70;4147045;84;21006;-84
2021/07/26 16:31:33;;;;;;;5.10;4.58;;;;;;;26.85;59.98;98625.63;4142914;85;21047;-85
2021/07/26 16:37:36;;;;;;;5.97;5.17;;;;;;;26.76;60.23;98617.36;4152236;85;21510;-84
2021/07/26 16:43:38;;;;;;;6.35;5.17;;;;;;;26.68;60.90;98626.06;4136234;85;21018;-86
2021/07/26 16:49:40;;;;;;;5.70;4.75;;;;;;;26.64;61.03;98628.95;4147740;85;21009;-84
2021/07/26 16:55:43;;;;;;;8.75;6.12;;;;;;;26.57;60.96;98630.11;4142792;85;21083;-84
2021/07/26 17:08:18;;;;;;;6.53;4.85;;;;;;;26.32;61.86;98642.02;4132496;86;21079;-85
2021/07/26 17:14:20;;;;;;;8.13;6.05;;;;;;;26.32;61.86;98642.02;4133492;85;21420;-84
2021/07/26 17:20:25;;;;;;;9.30;5.12;;;;;;;26.27;61.76;98648.31;4170752;85;21005;-85
2021/07/26 17:26:46;;;;;;;9.43;6.30;;;;;;;26.09;62.16;98661.20;4133143;85;20963;-85
2021/07/26 17:46:24;;;;;;;7.70;6.08;;;;;;;25.82;63.06;98672.70;4132406;85;21066;-84
2021/07/26 17:59:46;;;;;;;11.63;7.42;;;;;;;25.73;63.70;98672.82;4142830;85;21040;-84
2021/07/26 18:06:03;;;;;;;9.30;7.78;;;;;;;25.57;64.47;98660.07;4113879;85;21593;-84
2021/07/26 18:18:45;;;;;;;23.10;13.80;;;;;;;25.19;66.17;98669.13;4180186;85;21478;-83
2021/07/26 18:24:56;;;;;;;11.60;8.53;;;;;;;25.02;67.03;98675.81;4115641;84;20999;-84
2021/07/26 18:31:04;;;;;;;10.95;7.42;;;;;;;24.84;67.72;98662.59;4048358;86;22033;-83
2021/07/26 18:37:07;;;;;;;11.15;7.65;;;;;;;24.63;68.49;98667.22;4113417;86;21432;-85
2021/07/26 18:43:09;;;;;;;10.08;7.72;;;;;;;24.54;69.24;98681.28;4116550;85;21022;-85
2021/07/26 18:55:44;;;;;;;10.68;7.92;;;;;;;24.26;70.41;98693.23;4119995;86;21489;-85
2021/07/26 19:01:48;;;;;;;8.85;7.22;;;;;;;24.15;71.11;98699.95;4115330;85;21018;-84
2021/07/26 19:08:06;;;;;;;10.65;7.60;;;;;;;24.10;71.38;98703.39;4115525;86;21012;-84
2021/07/26 19:20:36;;;;;;;13.48;8.28;;;;;;;23.69;72.85;98720.13;3988064;87;21069;-82
2021/07/26 19:26:44;;;;;;;23.65;13.93;;;;;;;23.60;73.25;98713.16;4025677;87;21004;-84
2021/07/26 19:32:58;;;;;;;16.62;11.20;;;;;;;23.43;73.61;98711.95;4014111;88;21604;-84
2021/07/26 19:39:02;;;;;;;22.87;14.33;;;;;;;23.32;74.39;98711.66;3995892;88;21607;-84
2021/07/26 19:45:32;;;;;;;18.40;10.38;;;;;;;23.32;74.69;98711.66;3982547;88;21044;-84
2021/07/26 19:51:34;;;;;;;18.05;10.28;;;;;;;23.35;75.38;98712.87;3998106;87;21523;-84
2021/07/26 19:57:38;;;;;;;14.07;9.20;;;;;;;23.23;74.84;98679.67;4003032;88;21571;-84
2021/07/26 20:03:42;;;;;;;14.83;9.30;;;;;;;23.22;75.24;98687.12;3995516;87;21530;-84
2021/07/26 20:09:44;;;;;;;10.43;7.28;;;;;;;23.28;74.60;98694.27;4009134;88;21070;-83
2021/07/26 20:15:45;;;;;;;12.05;6.85;;;;;;;23.12;74.78;98692.55;4012734;87;21075;-84
2021/07/26 20:21:52;;;;;;;10.15;7.00;;;;;;;23.10;74.89;98691.61;4069539;86;21039;-84
2021/07/26 20:27:53;;;;;;;11.63;7.53;;;;;;;23.05;74.98;98693.62;3995977;88;20999;-83
2021/07/26 20:33:54;;;;;;;12.93;7.97;;;;;;;22.98;74.97;98698.75;4066698;86;21543;-83
2021/07/26 20:39:57;;;;;;;11.93;8.25;;;;;;;22.81;75.24;98703.08;4072390;86;21127;-84
2021/07/26 20:45:58;;;;;;;10.53;7.12;;;;;;;22.72;76.16;98698.89;3990977;88;21035;-84
2021/07/26 20:52:00;;;;;;;10.58;7.40;;;;;;;22.68;76.41;98696.25;4072908;86;20995;-84
2021/07/26 20:58:04;;;;;;;10.85;8.15;;;;;;;22.52;76.70;98685.36;4069749;86;21093;-84
2021/07/26 21:04:07;;;;;;;11.35;8.25;;;;;;;22.44;77.28;98689.65;4068297;86;22221;-84
2021/07/26 21:10:10;;;;;;;9.65;7.80;;;;;;;22.47;78.17;98675.42;4060461;86;21615;-84
2021/07/26 21:16:23;;;;;;;12.78;7.17;;;;;;;22.57;77.61;98681.18;4089143;86;21665;-84
2021/07/26 21:22:18;;;;;;;12.50;7.80;;;;;;;22.62;76.99;98670.81;4099468;86;21031;-84
2021/07/26 21:28:21;;;;;;;10.53;7.00;;;;;;;22.54;77.50;98662.58;4104266;86;21442;-84
2021/07/26 21:34:23;;;;;;;11.97;6.62;;;;;;;22.38;77.11;98652.45;4103740;85;21048;-84
2021/07/26 21:40:28;;;;;;;10.75;7.92;;;;;;;22.28;77.49;98659.27;3991906;87;21529;-84
2021/07/26 21:46:44;;;;;;;15.88;7.35;;;;;;;22.26;77.19;98653.97;4022534;87;21021;-84
2021/07/26 21:52:46;;;;;;;20.07;8.53;;;;;;;22.03;77.65;98662.28;3987077;87;21063;-84
2021/07/26 21:58:47;;;;;;;10.40;6.87;;;;;;;21.99;78.10;98673.42;3986171;87;21156;-84
2021/07/26 22:04:48;;;;;;;9.40;7.00;;;;;;;21.94;78.35;98692.88;4023641;87;21620;-84
2021/07/26 22:10:52;;;;;;;13.83;8.05;;;;;;;21.84;78.59;98691.30;3992247;87;21075;-84
2021/07/26 22:16:53;;;;;;;14.85;6.97;;;;;;;21.82;79.13;98695.16;4045068;86;21068;-84
2021/07/26 22:22:55;;;;;;;11.45;8.00;;;;;;;21.86;79.69;98695.81;4051725;86;21004;-86
2021/07/26 22:28:59;;;;;;;15.25;8.85;;;;;;;21.70;80.19;98698.19;4118203;85;21051;-85
2021/07/26 22:35:00;;;;;;;16.55;9.78;;;;;;;21.69;80.97;98686.86;4109611;85;21118;-84
2021/07/26 22:41:01;;;;;;;12.55;9.33;;;;;;;21.53;81.35;98680.75;4107059;85;21115;-84
2021/07/26 22:47:03;;;;;;;13.50;9.85;;;;;;;21.59;81.75;98701.20;4050122;86;21583;-84
2021/07/26 22:53:05;;;;;;;19.67;10.28;;;;;;;21.50;82.11;98702.55;4111904;85;21064;-84
2021/07/26 22:59:14;;;;;;;14.95;10.03;;;;;;;21.56;82.41;98706.30;4114645;85;21448;-83
2021/07/26 23:05:15;;;;;;;13.20;10.88;;;;;;;21.52;82.43;98707.02;4115082;85;21041;-84
2021/07/26 23:11:17;;;;;;;16.73;9.70;;;;;;;21.51;83.12;98697.13;4050301;86;21730;-82
2021/07/26 23:17:18;;;;;;;16.02;10.13;;;;;;;21.34;83.34;98705.52;4075203;86;21078;-82
2021/07/26 23:23:20;;;;;;;16.70;11.00;;;;;;;21.21;84.25;98698.63;4137998;85;21067;-83
2021/07/26 23:29:22;;;;;;;16.12;10.75;;;;;;;21.15;85.05;98681.56;4137943;85;21099;-81
2021/07/26 23:35:23;;;;;;;16.65;11.22;;;;;;;20.99;85.38;98674.18;4078020;86;21098;-82
2021/07/26 23:41:26;;;;;;;14.73;10.78;;;;;;;20.89;87.16;98648.86;4076441;86;21083;-82
2021/07/26 23:47:27;;;;;;;16.35;10.63;;;;;;;20.75;87.35;98646.58;4139946;83;21049;-82
2021/07/26 23:53:28;;;;;;;25.77;11.28;;;;;;;20.68;87.27;98648.84;4133777;84;21056;-81
2021/07/26 23:59:31;;;;;;;18.42;10.90;;;;;;;20.68;87.62;98663.53;4138840;85;21062;-81
